createdAt,value
2023-01-09T00:01:59.494Z,0.60
2023-01-09T00:04:25.872Z,0.30
2023-01-09T00:06:55.874Z,0.43
2023-01-09T00:09:24.046Z,0.30
2023-01-09T00:11:51.360Z,0.28
2023-01-09T00:14:18.905Z,0.20
2023-01-09T00:16:45.449Z,0.60
2023-01-09T00:19:12.273Z,0.20
2023-01-09T00:21:38.840Z,0.20
2023-01-09T00:24:05.625Z,0.20
2023-01-09T00:26:32.470Z,0.30
2023-01-09T00:28:59.252Z,0.60
2023-01-09T00:31:25.762Z,0.20
2023-01-09T00:33:59.603Z,0.20
2023-01-09T00:36:26.066Z,0.20
2023-01-09T00:38:55.114Z,0.57
2023-01-09T00:41:30.107Z,0.50
2023-01-09T00:44:02.181Z,0.20
2023-01-09T00:46:34.481Z,0.33
2023-01-09T00:49:05.457Z,0.30
2023-01-09T00:51:31.815Z,0.40
2023-01-09T00:53:58.344Z,0.50
2023-01-09T00:56:25.968Z,0.52
2023-01-09T00:58:53.480Z,0.40
2023-01-09T01:01:20.083Z,0.50
2023-01-09T01:03:46.615Z,0.43
2023-01-09T01:06:31.699Z,0.43
2023-01-09T01:08:58.217Z,0.30
2023-01-09T01:11:24.895Z,0.60
2023-01-09T01:13:51.549Z,0.50
2023-01-09T01:16:18.659Z,0.40
2023-01-09T01:18:45.446Z,0.40
2023-01-09T01:21:13.842Z,0.50
2023-01-09T01:23:40.423Z,0.93
2023-01-09T01:26:16.264Z,0.70
2023-01-09T01:28:43.484Z,0.55
2023-01-09T01:31:17.490Z,0.68
2023-01-09T01:33:43.993Z,0.80
2023-01-09T01:36:10.868Z,0.50
2023-01-09T01:38:37.466Z,0.50
2023-01-09T01:41:04.833Z,0.55
2023-01-09T01:44:02.031Z,0.40
2023-01-09T01:46:30.225Z,0.60
2023-01-09T01:49:11.504Z,0.70
2023-01-09T01:51:42.884Z,0.73
2023-01-09T01:54:17.955Z,0.82
2023-01-09T01:56:53.272Z,0.70
2023-01-09T01:59:31.944Z,0.85
2023-01-09T02:02:01.232Z,1.00
2023-01-09T02:04:30.159Z,1.30
2023-01-09T02:06:57.045Z,1.42
2023-01-09T02:09:25.161Z,1.30
2023-01-09T02:11:56.743Z,1.50
2023-01-09T02:14:26.223Z,1.27
2023-01-09T02:17:22.264Z,1.80
2023-01-09T02:20:07.344Z,1.65
2023-01-09T02:22:39.803Z,1.80
2023-01-09T02:25:31.800Z,2.00
2023-01-09T02:28:48.350Z,2.40
2023-01-09T02:31:21.011Z,2.00
2023-01-09T02:34:00.144Z,1.90
2023-01-09T02:36:38.691Z,1.80
2023-01-09T02:39:32.445Z,2.22
2023-01-09T02:42:15.015Z,2.00
2023-01-09T02:44:43.073Z,2.15
2023-01-09T02:47:15.296Z,1.92
2023-01-09T02:49:50.221Z,2.15
2023-01-09T02:52:35.459Z,2.53
2023-01-09T02:55:17.720Z,2.20
2023-01-09T02:58:05.220Z,2.45
2023-01-09T03:00:41.584Z,1.60
2023-01-09T03:03:17.644Z,1.85
2023-01-09T03:05:53.274Z,2.22
2023-01-09T03:08:22.999Z,2.10
2023-01-09T03:10:59.275Z,2.00
2023-01-09T03:13:32.209Z,2.00
2023-01-09T03:16:02.925Z,1.85
2023-01-09T03:18:31.751Z,1.70
2023-01-09T03:20:58.674Z,1.63
2023-01-09T03:23:26.235Z,2.00
2023-01-09T03:25:55.532Z,2.10
2023-01-09T03:28:31.086Z,1.50
2023-01-09T03:30:57.489Z,1.83
2023-01-09T03:33:23.973Z,1.73
2023-01-09T03:35:50.427Z,1.45
2023-01-09T03:38:16.932Z,1.80
2023-01-09T03:40:43.789Z,1.63
2023-01-09T03:43:10.386Z,1.55
2023-01-09T03:45:37.214Z,1.17
2023-01-09T03:48:03.819Z,1.27
2023-01-09T03:50:30.237Z,1.70
2023-01-09T03:52:56.728Z,1.50
2023-01-09T03:55:23.181Z,1.45
2023-01-09T03:57:49.813Z,1.33
2023-01-09T04:00:16.458Z,1.48
2023-01-09T04:02:43.263Z,1.20
2023-01-09T04:05:09.915Z,1.02
2023-01-09T04:07:36.316Z,1.10
2023-01-09T04:10:03.234Z,1.63
2023-01-09T04:12:29.742Z,1.25
2023-01-09T04:14:56.184Z,1.13
2023-01-09T04:17:22.672Z,1.60
2023-01-09T04:19:49.116Z,1.20
2023-01-09T04:22:15.493Z,1.17
2023-01-09T04:24:41.968Z,1.35
2023-01-09T04:27:08.575Z,1.20
2023-01-09T04:29:34.935Z,1.27
2023-01-09T04:32:01.373Z,1.00
2023-01-09T04:34:27.731Z,0.90
2023-01-09T04:36:54.825Z,1.13
2023-01-09T04:39:22.291Z,1.20
2023-01-09T04:41:51.777Z,0.98
2023-01-09T04:44:26.207Z,1.35
2023-01-09T04:46:53.583Z,0.90
2023-01-09T04:49:20.564Z,0.88
2023-01-09T04:51:47.688Z,0.77
2023-01-09T04:54:14.587Z,1.23
2023-01-09T04:56:40.984Z,0.80
2023-01-09T04:59:08.553Z,0.67
2023-01-09T05:01:35.415Z,0.73
2023-01-09T05:04:02.138Z,0.70
2023-01-09T05:06:28.869Z,0.88
2023-01-09T05:08:56.534Z,0.50
2023-01-09T05:11:25.402Z,0.50
2023-01-09T05:13:52.811Z,0.60
2023-01-09T05:16:19.948Z,0.73
2023-01-09T05:18:46.432Z,0.70
2023-01-09T05:21:13.941Z,0.50
2023-01-09T05:23:40.446Z,0.40
2023-01-09T05:26:06.924Z,0.45
2023-01-09T05:28:33.538Z,0.55
2023-01-09T05:30:59.934Z,0.50
2023-01-09T05:33:26.345Z,0.65
2023-01-09T05:35:52.703Z,0.50
2023-01-09T05:38:19.151Z,0.30
2023-01-09T05:40:45.572Z,0.75
2023-01-09T05:43:12.913Z,0.35
2023-01-09T05:45:39.407Z,0.40
2023-01-09T05:48:06.157Z,0.30
2023-01-09T05:50:32.604Z,0.38
2023-01-09T05:52:58.956Z,0.73
2023-01-09T05:55:25.317Z,0.70
2023-01-09T05:57:51.731Z,0.70
2023-01-09T06:00:18.990Z,0.40
2023-01-09T06:02:45.475Z,0.52
2023-01-09T06:05:12.094Z,0.50
2023-01-09T06:07:40.634Z,0.77
2023-01-09T06:10:12.592Z,0.63
2023-01-09T06:12:39.211Z,0.63
2023-01-09T06:15:08.683Z,1.05
2023-01-09T06:17:35.322Z,0.50
2023-01-09T06:20:01.788Z,1.02
2023-01-09T06:22:28.225Z,0.60
2023-01-09T06:24:54.620Z,0.47
2023-01-09T06:27:21.092Z,0.80
2023-01-09T06:29:47.563Z,0.75
2023-01-09T06:32:14.043Z,0.60
2023-01-09T06:34:40.543Z,0.50
2023-01-09T06:37:07.046Z,1.27
2023-01-09T06:39:33.522Z,0.70
2023-01-09T06:42:00.113Z,0.90
2023-01-09T06:44:26.493Z,0.90
2023-01-09T06:46:52.924Z,0.68
2023-01-09T06:49:23.542Z,0.87
2023-01-09T06:51:51.267Z,0.47
2023-01-09T06:54:19.350Z,0.50
2023-01-09T06:56:45.914Z,0.80
2023-01-09T06:59:12.821Z,0.90
2023-01-09T07:01:42.527Z,1.10
2023-01-09T07:04:11.840Z,1.20
2023-01-09T07:06:38.436Z,0.60
2023-01-09T07:09:06.102Z,0.60
2023-01-09T07:11:33.318Z,0.88
2023-01-09T07:13:59.752Z,0.50
2023-01-09T07:16:26.223Z,0.65
2023-01-09T07:18:52.731Z,0.70
2023-01-09T07:21:19.797Z,0.80
2023-01-09T07:23:46.797Z,0.60
2023-01-09T07:26:13.312Z,0.70
2023-01-09T07:28:39.653Z,0.70
2023-01-09T07:31:07.641Z,0.60
2023-01-09T07:33:35.376Z,0.80
2023-01-09T07:36:01.810Z,0.95
2023-01-09T07:38:28.277Z,1.00
2023-01-09T07:40:54.849Z,1.08
2023-01-09T07:43:21.324Z,1.00
2023-01-09T07:45:47.761Z,1.20
2023-01-09T07:48:14.287Z,1.00
2023-01-09T07:50:40.750Z,1.03
2023-01-09T07:53:09.383Z,1.23
2023-01-09T07:55:35.875Z,1.20
2023-01-09T07:58:02.402Z,1.40
2023-01-09T08:00:28.864Z,1.23
2023-01-09T08:02:55.428Z,1.63
2023-01-09T08:05:22.836Z,1.20
2023-01-09T08:07:51.281Z,1.45
2023-01-09T08:10:19.793Z,1.70
2023-01-09T08:12:47.691Z,1.10
2023-01-09T08:15:14.404Z,1.10
2023-01-09T08:17:43.006Z,0.80
2023-01-09T08:20:14.377Z,0.57
2023-01-09T08:22:49.735Z,0.40
2023-01-09T08:25:17.732Z,0.32
2023-01-09T08:27:44.694Z,0.30
2023-01-09T08:30:12.097Z,0.50
2023-01-09T08:32:39.105Z,0.30
2023-01-09T08:35:06.040Z,0.20
2023-01-09T08:37:32.508Z,0.20
2023-01-09T08:39:59.012Z,0.20
2023-01-09T08:42:44.373Z,0.52
2023-01-09T08:45:32.568Z,0.40
2023-01-09T08:47:59.068Z,0.30
2023-01-09T08:50:25.553Z,0.38
2023-01-09T08:52:52.015Z,0.40
2023-01-09T08:55:18.817Z,0.50
2023-01-09T08:57:53.483Z,0.82
2023-01-09T09:00:22.121Z,0.50
2023-01-09T09:02:56.364Z,0.45
2023-01-09T09:05:24.427Z,0.50
2023-01-09T09:07:54.652Z,0.40
2023-01-09T09:10:25.623Z,0.40
2023-01-09T09:12:54.374Z,0.65
2023-01-09T09:15:24.144Z,0.60
2023-01-09T09:17:56.006Z,0.50
2023-01-09T09:20:24.596Z,0.50
2023-01-09T09:22:51.348Z,0.40
2023-01-09T09:25:18.691Z,0.50
2023-01-09T09:27:45.462Z,0.50
2023-01-09T09:30:17.856Z,0.60
2023-01-09T09:32:44.735Z,0.50
2023-01-09T09:35:11.725Z,0.30
2023-01-09T09:37:38.476Z,0.43
2023-01-09T09:40:17.569Z,0.60
2023-01-09T09:43:43.223Z,0.37
2023-01-09T09:46:39.002Z,0.35
2023-01-09T09:49:35.537Z,0.93
2023-01-09T09:52:25.962Z,0.40
2023-01-09T09:54:52.952Z,0.25
2023-01-09T09:57:25.767Z,0.30
2023-01-09T09:59:53.383Z,0.30
2023-01-09T10:02:30.971Z,0.30
2023-01-09T10:05:05.203Z,0.25
2023-01-09T10:07:41.903Z,0.28
2023-01-09T10:10:34.228Z,0.57
2023-01-09T10:13:21.005Z,0.22
2023-01-09T10:16:04.149Z,0.47
2023-01-09T10:18:48.998Z,0.30
2023-01-09T10:21:43.683Z,0.50
2023-01-09T10:24:21.926Z,0.30
2023-01-09T10:26:51.678Z,0.40
2023-01-09T10:29:33.393Z,0.40
2023-01-09T10:32:12.146Z,0.28
2023-01-09T10:34:50.140Z,0.60
2023-01-09T10:37:23.520Z,0.67
2023-01-09T10:39:59.291Z,0.30
2023-01-09T10:42:36.534Z,0.93
2023-01-09T10:45:28.705Z,0.60
2023-01-09T10:48:03.275Z,0.40
2023-01-09T10:50:40.567Z,0.40
2023-01-09T10:53:27.790Z,0.22
2023-01-09T10:56:13.394Z,0.25
2023-01-09T10:58:39.825Z,0.20
2023-01-09T11:01:07.876Z,0.40
2023-01-09T11:03:34.339Z,0.30
2023-01-09T11:06:03.057Z,0.35
2023-01-09T11:08:40.204Z,0.45
2023-01-09T11:11:06.681Z,0.50
2023-01-09T11:13:35.158Z,0.40
2023-01-09T11:16:09.225Z,0.40
2023-01-09T11:18:40.882Z,0.35
2023-01-09T11:21:35.668Z,0.30
2023-01-09T11:24:22.405Z,0.40
2023-01-09T11:26:51.032Z,0.28
2023-01-09T11:29:20.154Z,0.30
2023-01-09T11:32:01.847Z,0.47
2023-01-09T11:34:31.855Z,0.30
2023-01-09T11:37:13.883Z,0.25
2023-01-09T11:39:47.901Z,0.50
2023-01-09T11:42:44.609Z,0.83
2023-01-09T11:45:16.310Z,0.55
2023-01-09T11:47:43.450Z,0.45
2023-01-09T11:50:26.359Z,1.00
2023-01-09T11:53:18.807Z,0.60
2023-01-09T11:55:46.985Z,0.57
2023-01-09T11:58:18.918Z,0.80
2023-01-09T12:01:00.217Z,0.50
2023-01-09T12:03:54.539Z,0.75
2023-01-09T12:06:38.727Z,1.05
2023-01-09T12:09:07.932Z,1.23
2023-01-09T12:12:08.242Z,0.68
2023-01-09T12:14:49.121Z,0.65
2023-01-09T12:17:40.999Z,0.70
2023-01-09T12:20:34.817Z,0.65
2023-01-09T12:23:01.352Z,0.80
2023-01-09T12:25:49.658Z,1.23
2023-01-09T12:28:22.140Z,0.50
2023-01-09T12:31:26.160Z,0.40
2023-01-09T12:34:11.672Z,0.88
2023-01-09T12:36:59.357Z,0.83
2023-01-09T12:39:52.522Z,0.75
2023-01-09T12:42:29.618Z,0.77
2023-01-09T12:45:34.485Z,0.73
2023-01-09T12:48:13.603Z,0.60
2023-01-09T12:51:00.604Z,0.70
2023-01-09T12:53:32.413Z,1.05
2023-01-09T12:56:06.813Z,1.02
2023-01-09T12:58:56.198Z,0.82
2023-01-09T13:01:30.482Z,1.38
2023-01-09T13:04:24.611Z,1.10
2023-01-09T13:07:18.668Z,0.90
2023-01-09T13:10:30.636Z,0.75
2023-01-09T13:13:00.288Z,0.52
2023-01-09T13:15:36.525Z,0.60
2023-01-09T13:18:15.586Z,0.97
2023-01-09T13:20:46.122Z,0.75
2023-01-09T13:23:26.661Z,1.10
2023-01-09T13:25:57.680Z,1.00
2023-01-09T13:28:47.294Z,0.77
2023-01-09T13:31:35.603Z,1.27
2023-01-09T13:34:06.563Z,0.40
2023-01-09T13:36:45.748Z,0.60
2023-01-09T13:39:21.457Z,1.30
2023-01-09T13:42:11.309Z,0.70
2023-01-09T13:44:37.921Z,0.40
2023-01-09T13:47:04.685Z,0.60
2023-01-09T13:49:53.775Z,1.52
2023-01-09T13:52:38.507Z,1.02
2023-01-09T13:55:17.552Z,1.08
2023-01-09T13:58:13.666Z,0.50
2023-01-09T14:00:44.489Z,1.00
2023-01-09T14:03:52.986Z,0.88
2023-01-09T14:06:19.767Z,0.75
2023-01-09T14:08:48.323Z,0.70
2023-01-09T14:11:19.978Z,0.67
2023-01-09T14:13:52.534Z,0.68
2023-01-09T14:16:24.906Z,0.70
2023-01-09T14:19:03.268Z,0.80
2023-01-09T14:21:45.820Z,1.02
2023-01-09T14:24:23.884Z,0.87
2023-01-09T14:26:56.667Z,0.77
2023-01-09T14:29:35.870Z,1.10
2023-01-09T14:32:20.621Z,1.02
2023-01-09T14:34:58.605Z,0.60
2023-01-09T14:37:28.564Z,1.23
2023-01-09T14:39:56.723Z,0.57
2023-01-09T14:42:27.318Z,0.88
2023-01-09T14:45:04.094Z,0.68
2023-01-09T14:47:41.773Z,0.50
2023-01-09T14:50:51.662Z,0.43
2023-01-09T14:53:21.105Z,0.70
2023-01-09T14:56:01.776Z,0.73
2023-01-09T14:58:35.724Z,1.65
2023-01-09T15:01:14.934Z,1.13
2023-01-09T15:03:58.826Z,0.50
2023-01-09T15:06:28.531Z,0.60
2023-01-09T15:09:20.961Z,0.50
2023-01-09T15:11:47.751Z,0.70
2023-01-09T15:14:40.534Z,0.60
2023-01-09T15:17:28.479Z,0.73
2023-01-09T15:19:56.464Z,0.47
2023-01-09T15:22:25.640Z,0.50
2023-01-09T15:24:52.317Z,0.88
2023-01-09T15:27:24.800Z,0.98
2023-01-09T15:29:52.555Z,0.77
2023-01-09T15:32:24.956Z,1.13
2023-01-09T15:34:52.442Z,0.63
2023-01-09T15:37:40.339Z,0.40
2023-01-09T15:40:13.492Z,1.33
2023-01-09T15:42:57.154Z,0.60
2023-01-09T15:45:29.329Z,0.70
2023-01-09T15:48:24.572Z,0.75
2023-01-09T15:51:13.305Z,0.40
2023-01-09T15:53:41.641Z,0.73
2023-01-09T15:56:24.883Z,1.20
2023-01-09T15:58:54.923Z,0.50
2023-01-09T16:01:33.738Z,0.50
2023-01-09T16:04:17.751Z,0.60
2023-01-09T16:06:48.070Z,1.15
2023-01-09T16:09:21.931Z,0.70
2023-01-09T16:11:55.440Z,0.90
2023-01-09T16:14:47.622Z,1.23
2023-01-09T16:17:16.922Z,1.00
2023-01-09T16:19:55.296Z,0.50
2023-01-09T16:22:33.435Z,0.50
2023-01-09T16:25:02.281Z,0.90
2023-01-09T16:27:32.057Z,0.80
2023-01-09T16:30:07.387Z,0.60
2023-01-09T16:32:47.445Z,1.30
2023-01-09T16:35:20.143Z,0.50
2023-01-09T16:37:47.129Z,0.55
2023-01-09T16:40:16.932Z,0.60
2023-01-09T16:43:03.017Z,1.00
2023-01-09T16:45:33.536Z,0.30
2023-01-09T16:48:10.204Z,1.70
2023-01-09T16:50:36.754Z,1.25
2023-01-09T16:53:12.852Z,1.63
2023-01-09T16:55:39.350Z,1.27
2023-01-09T16:58:05.915Z,1.55
2023-01-09T17:00:32.511Z,1.70
2023-01-09T17:03:00.667Z,1.30
2023-01-09T17:05:27.036Z,1.17
2023-01-09T17:07:54.610Z,1.42
2023-01-09T17:10:22.756Z,1.85
2023-01-09T17:12:49.319Z,1.23
2023-01-09T17:15:16.274Z,0.90
2023-01-09T17:17:42.871Z,1.58
2023-01-09T17:20:17.995Z,0.88
2023-01-09T17:22:44.457Z,0.70
2023-01-09T17:25:35.177Z,0.50
2023-01-09T17:28:21.411Z,0.50
2023-01-09T17:30:47.881Z,0.80
2023-01-09T17:33:16.939Z,0.80
2023-01-09T17:35:43.883Z,0.93
2023-01-09T17:38:14.271Z,0.57
2023-01-09T17:40:41.165Z,0.70
2023-01-09T17:43:07.611Z,0.85
2023-01-09T17:45:34.104Z,1.00
2023-01-09T17:48:00.517Z,1.10
2023-01-09T17:50:29.717Z,0.80
2023-01-09T17:52:56.110Z,1.00
2023-01-09T17:55:22.514Z,1.20
2023-01-09T17:57:49.510Z,1.63
2023-01-09T18:00:39.571Z,1.23
2023-01-09T18:03:07.607Z,0.97
2023-01-09T18:05:34.442Z,0.90
2023-01-09T18:08:01.034Z,1.48
2023-01-09T18:10:27.561Z,1.63
2023-01-09T18:12:55.789Z,1.27
2023-01-09T18:15:24.410Z,1.47
2023-01-09T18:17:52.256Z,1.30
2023-01-09T18:20:19.047Z,1.20
2023-01-09T18:22:45.450Z,1.20
2023-01-09T18:25:11.994Z,1.20
2023-01-09T18:27:38.641Z,1.20
2023-01-09T18:30:06.241Z,1.38
2023-01-09T18:32:33.081Z,1.50
2023-01-09T18:34:59.443Z,1.00
2023-01-09T18:37:25.846Z,1.17
2023-01-09T18:39:52.275Z,0.90
2023-01-09T18:42:19.040Z,1.00
2023-01-09T18:44:45.623Z,0.95
2023-01-09T18:47:12.424Z,1.50
2023-01-09T18:49:38.849Z,1.10
2023-01-09T18:52:07.461Z,0.80
2023-01-09T18:54:34.217Z,0.80
2023-01-09T18:57:00.761Z,0.98
2023-01-09T18:59:27.205Z,0.90
2023-01-09T19:01:53.586Z,0.98
2023-01-09T19:04:20.060Z,1.50
2023-01-09T19:06:46.483Z,1.13
2023-01-09T19:09:13.029Z,1.23
2023-01-09T19:11:39.842Z,0.80
2023-01-09T19:14:06.328Z,0.63
2023-01-09T19:16:32.947Z,0.93
2023-01-09T19:19:01.925Z,0.77
2023-01-09T19:21:29.739Z,0.80
2023-01-09T19:23:56.174Z,0.68
2023-01-09T19:26:24.562Z,0.43
2023-01-09T19:28:54.897Z,0.43
2023-01-09T19:31:24.904Z,0.57
2023-01-09T19:33:52.474Z,0.50
2023-01-09T19:36:18.999Z,0.88
2023-01-09T19:38:45.561Z,1.00
2023-01-09T19:41:19.164Z,1.30
2023-01-09T19:43:46.388Z,1.60
2023-01-09T19:46:15.458Z,0.98
2023-01-09T19:48:44.823Z,0.77
2023-01-09T19:51:12.658Z,1.13
2023-01-09T19:53:39.509Z,1.10
2023-01-09T19:56:28.349Z,1.65
2023-01-09T19:58:58.198Z,1.02
2023-01-09T20:01:30.127Z,0.60
2023-01-09T20:03:58.614Z,1.23
2023-01-09T20:06:26.348Z,1.33
2023-01-09T20:08:55.552Z,1.02
2023-01-09T20:11:23.385Z,1.13
2023-01-09T20:13:50.187Z,1.38
2023-01-09T20:16:22.377Z,1.63
2023-01-09T20:18:48.884Z,1.40
2023-01-09T20:21:22.167Z,2.10
2023-01-09T20:23:49.772Z,1.70
2023-01-09T20:26:17.622Z,1.90
2023-01-09T20:28:44.926Z,1.83
2023-01-09T20:31:13.259Z,1.57
2023-01-09T20:33:39.860Z,2.17
2023-01-09T20:36:06.613Z,1.60
2023-01-09T20:38:33.199Z,1.80
2023-01-09T20:41:11.134Z,1.85
2023-01-09T20:43:37.734Z,1.57
2023-01-09T20:46:04.658Z,1.70
2023-01-09T20:48:31.293Z,1.63
2023-01-09T20:51:04.447Z,1.33
2023-01-09T20:53:30.950Z,1.48
2023-01-09T20:56:06.273Z,1.70
2023-01-09T20:58:33.639Z,1.33
2023-01-09T21:01:08.510Z,1.67
2023-01-09T21:03:35.334Z,1.80
2023-01-09T21:06:09.536Z,1.77
2023-01-09T21:08:36.671Z,2.13
2023-01-09T21:11:04.831Z,1.83
2023-01-09T21:13:31.798Z,1.50
2023-01-09T21:16:10.215Z,1.13
2023-01-09T21:18:37.520Z,1.52
2023-01-09T21:21:05.727Z,1.50
2023-01-09T21:23:33.120Z,1.60
2023-01-09T21:26:00.103Z,1.52
2023-01-09T21:28:27.820Z,1.23
2023-01-09T21:30:54.412Z,1.40
2023-01-09T21:33:23.680Z,1.50
2023-01-09T21:35:58.132Z,1.90
2023-01-09T21:38:26.214Z,1.25
2023-01-09T21:40:53.900Z,1.00
2023-01-09T21:43:47.333Z,1.10
2023-01-09T21:46:37.239Z,1.90
2023-01-09T21:49:04.843Z,1.15
2023-01-09T21:51:31.629Z,0.95
2023-01-09T21:53:58.043Z,0.95
2023-01-09T21:56:24.449Z,0.80
2023-01-09T21:58:50.970Z,0.90
2023-01-09T22:01:19.952Z,1.63
2023-01-09T22:03:46.457Z,1.25
2023-01-09T22:06:12.965Z,1.10
2023-01-09T22:08:39.328Z,1.27
2023-01-09T22:11:05.749Z,1.43
2023-01-09T22:13:32.238Z,1.45
2023-01-09T22:16:07.160Z,1.20
2023-01-09T22:18:35.313Z,1.10
2023-01-09T22:21:02.747Z,1.17
2023-01-09T22:23:30.091Z,0.83
2023-01-09T22:25:56.695Z,0.73
2023-01-09T22:28:23.972Z,0.80
2023-01-09T22:30:50.384Z,0.65
2023-01-09T22:33:18.550Z,1.40
2023-01-09T22:35:44.982Z,1.00
2023-01-09T22:38:12.070Z,1.13
2023-01-09T22:40:39.109Z,1.30
2023-01-09T22:43:06.020Z,0.77
2023-01-09T22:45:32.987Z,1.05
2023-01-09T22:47:59.499Z,1.67
2023-01-09T22:50:25.993Z,1.27
2023-01-09T22:52:55.617Z,0.98
2023-01-09T22:55:22.216Z,0.75
2023-01-09T22:57:48.668Z,0.85
2023-01-09T23:00:15.557Z,0.80
2023-01-09T23:02:42.070Z,0.85
2023-01-09T23:05:08.749Z,0.65
2023-01-09T23:07:37.328Z,1.10
2023-01-09T23:10:05.627Z,0.65
2023-01-09T23:12:32.757Z,0.90
2023-01-09T23:14:59.195Z,1.20
2023-01-09T23:17:25.652Z,0.95
2023-01-09T23:19:52.206Z,1.00
2023-01-09T23:22:18.944Z,0.85
2023-01-09T23:24:45.404Z,1.87
2023-01-09T23:27:11.864Z,1.85
2023-01-09T23:29:39.693Z,0.70
2023-01-09T23:32:06.479Z,0.90
2023-01-09T23:34:33.756Z,0.88
2023-01-09T23:37:00.775Z,1.07
2023-01-09T23:39:27.403Z,1.20
2023-01-09T23:42:12.274Z,0.80
2023-01-09T23:44:38.805Z,0.85
2023-01-09T23:47:05.291Z,1.17
2023-01-09T23:49:31.767Z,0.90
2023-01-09T23:51:58.249Z,1.15
2023-01-09T23:54:24.991Z,1.30
2023-01-09T23:56:53.232Z,1.10
2023-01-09T23:59:19.794Z,1.23
